Time;durP1;ratioP1;P1;durP2;ratioP2;P2;SDS_P1;SDS_P2;PMS_P1;PMS_P2;Temp;Humidity;BMP_temperature;BMP_pressure;BME280_temperature;BME280_humidity;BME280_pressure;Samples;Min_cycle;Max_cycle;Signal;HPM_P1;HPM_P2
2021/06/10 00:04:32;;;;;;;;;;;17.50;99.90;;;16.38;80.04;96125.47;10537392;28;1980;-84
2021/06/10 00:09:34;;;;;;;;;;;17.40;99.90;;;16.25;81.13;96115.41;10540585;28;2104;-83
2021/06/10 00:14:36;;;;;;;;;;;17.30;99.90;;;16.11;82.33;96115.41;10541784;28;2311;-84
2021/06/10 00:19:39;;;;;;;;;;;17.20;99.90;;;15.97;83.81;96122.69;10548722;28;1536;-87
2021/06/10 00:24:41;;;;;;;;;;;17.60;99.90;;;15.87;84.33;96129.13;10539058;28;1985;-85
2021/06/10 00:29:44;;;;;;;;;;;17.00;99.90;;;15.76;85.17;96133.13;10550991;28;2029;-85
2021/06/10 00:34:46;;;;;;;;;;;16.90;99.90;;;15.76;85.54;96135.81;10549456;28;1409;-85
2021/06/10 00:39:48;;;;;;;;;;;16.80;99.90;;;15.74;85.31;96138.84;10539074;28;2095;-83
2021/06/10 00:44:50;;;;;;;;;;;16.80;99.90;;;15.65;85.36;96136.00;10584422;28;2020;-85
2021/06/10 00:49:53;;;;;;;;;;;16.80;99.90;;;15.59;86.44;96131.75;10575479;28;2074;-84
2021/06/10 00:54:55;;;;;;;;;;;16.70;99.90;;;15.61;85.84;96124.13;10547637;28;1627;-84
2021/06/10 00:59:58;;;;;;;;;;;16.70;99.90;;;15.55;86.36;96128.00;10547748;28;1949;-84
2021/06/10 01:05:01;;;;;;;;;;;16.60;99.90;;;15.56;86.38;96123.41;10553166;28;1925;-84
2021/06/10 01:10:03;;;;;;;;;;;16.60;99.90;;;15.47;86.71;96131.41;10539069;28;2065;-84
2021/06/10 01:15:06;;;;;;;;;;;16.60;99.90;;;15.38;87.44;96136.66;10546730;28;2386;-84
2021/06/10 01:20:08;;;;;;;;;;;16.50;99.90;;;15.31;87.71;96127.31;10552876;28;1829;-86
2021/06/10 01:25:13;;;;;;;;;;;16.50;99.90;;;15.29;88.32;96124.09;10550815;28;2522;-83
2021/06/10 01:30:16;;;;;;;;;;;16.40;99.90;;;15.20;89.21;96125.84;10576735;28;2095;-85
2021/06/10 01:35:18;;;;;;;;;;;16.30;99.90;;;15.20;89.19;96109.59;10564623;28;1775;-84
2021/06/10 01:40:20;;;;;;;;;;;16.30;99.90;;;15.17;88.97;96113.72;10553419;28;1902;-84
2021/06/10 01:45:22;;;;;;;;;;;16.30;99.90;;;15.16;89.48;96114.81;10570820;28;2110;-85
2021/06/10 01:50:25;;;;;;;;;;;16.20;99.90;;;15.11;89.58;96114.91;10557004;28;2194;-85
2021/06/10 01:55:28;;;;;;;;;;;16.20;99.90;;;15.00;90.39;96108.00;10552659;28;2127;-84
2021/06/10 02:00:30;;;;;;;;;;;16.20;99.90;;;15.04;90.27;96109.03;10550935;28;2060;-83
2021/06/10 02:05:33;;;;;;;;;;;16.10;99.90;;;15.08;89.69;96108.19;10558444;28;1942;-85
2021/06/10 02:10:35;;;;;;;;;;;16.20;99.90;;;14.96;90.33;96107.81;10539661;28;2118;-85
2021/06/10 02:15:37;;;;;;;;;;;16.10;99.90;;;14.90;90.34;96114.41;10550676;28;2091;-85
2021/06/10 02:20:39;;;;;;;;;;;16.00;99.90;;;14.84;91.16;96118.28;10545486;28;2228;-84
2021/06/10 02:25:42;;;;;;;;;;;16.00;99.90;;;14.81;91.91;96110.72;10547465;28;2286;-84
2021/06/10 02:30:44;;;;;;;;;;;15.90;99.90;;;14.72;91.98;96107.06;10560203;28;2013;-85
2021/06/10 02:35:47;;;;;;;;;;;15.80;99.90;;;14.69;92.26;96115.75;10580381;28;1955;-85
2021/06/10 02:40:49;;;;;;;;;;;15.90;99.90;;;14.72;92.45;96115.19;10569605;28;1914;-85
2021/06/10 02:45:52;;;;;;;;;;;15.80;99.90;;;14.68;92.60;96124.97;10546339;28;2094;-87
2021/06/10 02:50:55;;;;;;;;;;;15.80;99.90;;;14.54;92.56;96133.00;10538445;28;1954;-87
2021/06/10 02:55:57;;;;;;;;;;;15.70;99.90;;;14.56;92.81;96126.19;10542188;28;2276;-86
2021/06/10 03:01:00;;;;;;;;;;;15.70;99.90;;;14.48;92.60;96123.34;10542363;28;2013;-83
2021/06/10 03:06:02;;;;;;;;;;;15.60;99.90;;;14.50;93.67;96132.75;10558529;28;1262;-85
2021/06/10 03:11:05;;;;;;;;;;;15.60;99.90;;;14.58;92.97;96134.03;10580340;28;1883;-85
2021/06/10 03:16:07;;;;;;;;;;;15.60;99.90;;;14.57;92.48;96135.94;10597295;28;1309;-83
2021/06/10 03:21:10;;;;;;;;;;;15.60;99.90;;;14.64;92.07;96140.19;10554251;28;2058;-83
2021/06/10 03:26:13;;;;;;;;;;;15.60;99.90;;;14.68;92.09;96139.31;10545144;28;2229;-84
2021/06/10 03:31:15;;;;;;;;;;;15.70;99.90;;;14.78;91.64;96143.78;10544436;28;1903;-85
2021/06/10 03:36:18;;;;;;;;;;;15.70;99.90;;;14.87;90.58;96136.63;10556957;28;2049;-83
2021/06/10 03:41:20;;;;;;;;;;;15.80;99.90;;;14.94;90.21;96138.97;10553289;28;2061;-85
2021/06/10 03:46:23;;;;;;;;;;;15.90;99.90;;;15.10;89.49;96140.38;10554729;28;2050;-83
2021/06/10 03:51:26;;;;;;;;;;;16.00;99.90;;;15.23;89.04;96136.91;10540577;28;1966;-84
2021/06/10 03:56:28;;;;;;;;;;;16.10;99.90;;;15.35;88.01;96148.09;10549823;28;2209;-84
2021/06/10 04:01:31;;;;;;;;;;;16.20;99.90;;;15.71;86.20;96142.13;10549036;28;2097;-86
2021/06/10 04:06:34;;;;;;;;;;;16.30;99.90;;;16.05;83.77;96139.09;10548504;28;2080;-84
2021/06/10 04:11:37;;;;;;;;;;;16.70;99.90;;;16.40;82.33;96142.22;10555657;28;1206;-85
2021/06/10 04:16:40;;;;;;;;;;;17.00;99.90;;;16.65;80.83;96138.19;10552918;28;2038;-84
2021/06/10 04:22:02;;;;;;;;;;;17.20;99.90;;;16.50;80.68;96136.63;10552323;28;2164;-85
2021/06/10 04:27:36;;;;;;;;;;;17.30;99.90;;;16.70;80.37;96141.66;10554655;28;2048;-86
2021/06/10 04:33:11;;;;;;;;;;;17.40;99.90;;;16.93;78.67;96142.53;10571166;28;2088;-83
2021/06/10 04:38:39;;;;;;;;;;;17.60;99.90;;;17.09;77.59;96140.25;10571188;28;1989;-85
2021/06/10 04:44:01;;;;;;;;;;;17.70;99.90;;;17.35;76.56;96136.97;10568748;28;1904;-84
2021/06/10 04:49:49;;;;;;;;;;;17.90;99.90;;;17.66;75.11;96145.19;10547588;28;2088;-84
2021/06/10 04:55:37;;;;;;;;;;;18.20;99.90;;;17.84;74.11;96155.09;10538483;28;2144;-85
2021/06/10 05:01:05;;;;;;;;;;;18.50;99.90;;;17.92;73.29;96148.91;10537444;28;2060;-84
2021/06/10 05:06:27;;;;;;;;;;;18.60;99.90;;;17.83;73.76;96157.03;10553921;28;2006;-80
2021/06/10 05:11:29;;;;;;;;;;;18.60;99.90;;;17.78;73.47;96162.56;10551847;28;2199;-80
2021/06/10 05:16:51;;;;;;;;;;;18.50;99.90;;;17.70;73.78;96160.59;10545332;28;2183;-79
2021/06/10 05:22:25;;;;;;;;;;;18.50;99.90;;;17.81;73.45;96161.16;10550457;28;2275;-80
2021/06/10 05:27:48;;;;;;;;;;;18.50;99.90;;;17.97;72.90;96158.84;10542838;28;2392;-82
2021/06/10 05:33:11;;;;;;;;;;;18.60;99.90;;;19.10;68.54;96157.38;10536361;28;2187;-81
2021/06/10 05:38:34;;;;;;;;;;;19.20;99.90;;;19.98;64.96;96149.69;10552998;28;2133;-79
2021/06/10 05:43:56;;;;;;;;;;;20.10;99.90;;;20.18;64.31;96147.38;10566701;28;2118;-81
2021/06/10 05:49:19;;;;;;;;;;;20.70;99.90;;;20.27;63.12;96158.25;10540081;28;2017;-82
2021/06/10 05:54:41;;;;;;;;;;;20.80;99.90;;;19.21;67.46;96169.56;10536174;28;2017;-81
2021/06/10 06:00:05;;;;;;;;;;;20.40;99.90;;;19.77;65.57;96170.56;10543696;28;2055;-79
2021/06/10 06:05:27;;;;;;;;;;;20.30;99.90;;;19.93;64.44;96168.94;10540537;28;2006;-81
2021/06/10 06:10:51;;;;;;;;;;;20.40;99.90;;;19.91;64.96;96170.38;10535132;28;1545;-82
2021/06/10 06:16:13;;;;;;;;;;;20.60;99.90;;;20.00;64.20;96173.09;10542031;28;2093;-84
2021/06/10 06:21:15;;;;;;;;;;;20.60;99.90;;;20.30;63.38;96177.53;10553135;28;2169;-88
2021/06/10 06:26:38;;;;;;;;;;;20.80;99.90;;;20.49;62.70;96180.72;10546343;28;2098;-84
2021/06/10 06:32:02;;;;;;;;;;;21.00;99.90;;;20.83;61.01;96168.00;10551444;28;2048;-86
2021/06/10 06:37:25;;;;;;;;;;;21.30;99.90;;;21.18;60.23;96173.25;10558282;28;2159;-85
2021/06/10 06:42:47;;;;;;;;;;;21.60;99.90;;;21.56;58.72;96171.25;10555507;28;2039;-85
2021/06/10 06:48:09;;;;;;;;;;;22.00;99.90;;;21.65;58.20;96170.38;10560879;28;2113;-84
2021/06/10 06:53:32;;;;;;;;;;;22.30;99.90;;;22.03;57.49;96176.47;10552409;28;2089;-86
2021/06/10 06:59:12;;;;;;;;;;;22.30;99.90;;;21.80;57.90;96170.56;10551395;28;2118;-87
2021/06/10 07:04:34;;;;;;;;;;;22.40;99.90;;;21.16;59.53;96175.53;10544454;28;2162;-80
2021/06/10 07:09:36;;;;;;;;;;;22.10;99.90;;;20.77;61.76;96180.25;10539972;28;2057;-82
2021/06/10 07:14:39;;;;;;;;;;;21.70;99.90;;;20.97;61.19;96184.97;10547156;28;2095;-83
2021/06/10 07:20:01;;;;;;;;;;;21.70;99.90;;;21.74;59.12;96179.31;10549786;28;2186;-82
2021/06/10 07:25:24;;;;;;;;;;;22.10;99.90;;;21.98;57.46;96170.41;10561711;28;2085;-81
2021/06/10 07:30:46;;;;;;;;;;;22.60;99.90;;;22.04;57.36;96188.22;10570662;28;1821;-80
2021/06/10 07:36:08;;;;;;;;;;;22.80;99.90;;;21.61;58.95;96177.66;10567405;28;1865;-81
2021/06/10 07:41:30;;;;;;;;;;;22.60;99.90;;;22.61;55.59;96179.25;10568263;28;1991;-80
2021/06/10 07:46:52;;;;;;;;;;;22.80;99.90;;;23.07;53.55;96178.03;10559686;28;1849;-79
2021/06/10 07:51:55;;;;;;;;;;;23.40;99.90;;;22.94;54.08;96173.69;10563261;28;1852;-80
2021/06/10 07:57:09;;;;;;;;;;;23.60;99.90;;;22.08;56.76;96180.94;10569437;28;1789;-80
2021/06/10 08:02:11;;;;;;;;;;;23.10;99.90;;;22.46;55.36;96182.63;10563991;28;1973;-79
2021/06/10 08:07:34;;;;;;;;;;;23.20;99.90;;;22.88;53.90;96177.81;10565172;28;1983;-80
2021/06/10 08:12:36;;;;;;;;;;;23.40;99.90;;;22.92;53.85;96175.97;10555520;28;2056;-80
2021/06/10 08:17:39;;;;;;;;;;;23.70;99.90;;;23.62;53.08;96176.59;10529624;28;1952;-82
2021/06/10 08:22:41;;;;;;;;;;;23.90;99.90;;;23.85;50.88;96170.53;10531758;28;2022;-80
2021/06/10 08:27:43;;;;;;;;;;;24.30;99.90;;;23.10;52.50;96173.81;10527079;28;2093;-80
2021/06/10 08:32:45;;;;;;;;;;;24.00;99.90;;;22.91;53.31;96164.22;10538649;28;2167;-83
2021/06/10 08:37:48;;;;;;;;;;;23.70;99.90;;;22.85;52.82;96175.72;10541757;28;2082;-81
2021/06/10 08:42:50;;;;;;;;;;;23.50;99.90;;;22.55;53.67;96175.13;10561317;28;2070;-81
2021/06/10 08:47:52;;;;;;;;;;;23.30;99.90;;;22.78;53.49;96167.28;10562491;28;2090;-81
2021/06/10 08:52:56;;;;;;;;;;;23.30;99.90;;;24.17;49.18;96165.94;10547907;28;2083;-80
2021/06/10 08:57:58;;;;;;;;;;;24.10;99.90;;;24.48;49.24;96159.72;10547259;28;2026;-80
2021/06/10 09:03:01;;;;;;;;;;;24.60;99.90;;;24.22;48.47;96162.94;10544614;28;2018;-80
2021/06/10 09:08:05;;;;;;;;;;;24.80;99.90;;;24.13;49.85;96163.09;10544779;28;2084;-80
2021/06/10 09:13:09;;;;;;;;;;;24.70;99.90;;;24.20;49.02;96159.75;10553518;28;2163;-79
2021/06/10 09:18:11;;;;;;;;;;;24.70;99.90;;;24.21;47.99;96162.13;10551787;28;2098;-81
2021/06/10 09:23:14;;;;;;;;;;;24.80;99.90;;;23.55;49.97;96161.84;10532334;28;2265;-81
2021/06/10 09:28:16;;;;;;;;;;;24.60;99.90;;;22.74;51.31;96158.13;10538827;28;2243;-80
2021/06/10 09:33:18;;;;;;;;;;;24.00;99.90;;;22.96;51.93;96162.38;10550359;28;2189;-79
2021/06/10 09:38:21;;;;;;;;;;;23.60;99.90;;;23.71;49.22;96173.69;10548141;28;2169;-79
2021/06/10 09:43:23;;;;;;;;;;;24.00;99.90;;;24.04;47.88;96159.72;10551109;28;2215;-81
2021/06/10 09:48:25;;;;;;;;;;;24.30;99.90;;;25.46;45.25;96156.97;10564801;28;2201;-80
2021/06/10 09:53:29;;;;;;;;;;;25.30;99.90;;;25.97;41.55;96161.59;10572322;28;2214;-82
2021/06/10 09:58:34;;;;;;;;;;;25.90;99.90;;;25.77;41.30;96153.31;10572682;28;2299;-79
2021/06/10 10:03:43;;;;;;;;;;;26.30;99.90;;;25.31;43.57;96147.59;10584368;28;2163;-80
2021/06/10 10:08:47;;;;;;;;;;;26.40;99.90;;;25.11;44.35;96153.41;10578986;28;2100;-83
2021/06/10 10:13:49;;;;;;;;;;;26.00;99.90;;;23.59;47.85;96157.22;10583701;28;2062;-80
2021/06/10 10:18:53;;;;;;;;;;;25.00;99.90;;;23.60;48.15;96143.19;10574463;28;2118;-81
2021/06/10 10:23:56;;;;;;;;;;;24.40;99.90;;;24.62;44.16;96148.28;10567845;28;2170;-80
2021/06/10 10:28:58;;;;;;;;;;;24.90;99.90;;;25.01;42.06;96133.53;10576397;28;1777;-82
2021/06/10 10:34:00;;;;;;;;;;;25.60;99.60;;;25.23;41.36;96129.34;10568984;28;2096;-79
2021/06/10 10:39:02;;;;;;;;;;;26.00;98.60;;;26.00;39.83;96117.56;10567035;28;2257;-79
2021/06/10 10:44:05;;;;;;;;;;;26.80;95.70;;;25.47;43.45;96120.03;10575248;28;2176;-80
2021/06/10 10:49:07;;;;;;;;;;;27.30;96.30;;;26.08;41.10;96118.47;10588252;28;1896;-81
2021/06/10 10:54:11;;;;;;;;;;;27.40;95.70;;;25.73;42.35;96116.66;10585194;28;2092;-79
2021/06/10 10:59:13;;;;;;;;;;;27.60;93.90;;;26.67;38.82;96112.47;10546762;28;2174;-80
2021/06/10 11:04:16;;;;;;;;;;;28.30;90.80;;;26.38;37.90;96102.91;10539635;28;2141;-82
2021/06/10 11:09:20;;;;;;;;;;;28.50;86.60;;;25.65;38.34;96092.88;10531219;28;2366;-81
2021/06/10 11:14:24;;;;;;;;;;;28.10;85.10;;;26.30;36.38;96092.91;10536640;28;2199;-84
2021/06/10 11:19:35;;;;;;;;;;;28.20;83.20;;;27.76;35.56;96090.78;10541028;28;2178;-82
2021/06/10 11:24:38;;;;;;;;;;;29.20;83.40;;;28.28;33.96;96093.28;10540228;28;2211;-83
2021/06/10 11:29:40;;;;;;;;;;;30.20;79.50;;;26.37;40.14;96095.78;10568084;28;2174;-82
2021/06/10 11:34:42;;;;;;;;;;;29.50;81.30;;;24.75;43.54;96081.88;10550304;28;2001;-79
2021/06/10 11:39:45;;;;;;;;;;;27.20;84.40;;;24.90;43.14;96082.19;10574170;28;2103;-80
2021/06/10 11:44:52;;;;;;;;;;;26.10;86.90;;;25.49;41.71;96067.38;10558447;28;2069;-81
2021/06/10 11:49:55;;;;;;;;;;;26.20;87.40;;;26.02;38.52;96067.59;10567005;28;2196;-82
2021/06/10 11:54:57;;;;;;;;;;;26.60;84.40;;;25.21;40.30;96071.13;10565208;28;2161;-83
2021/06/10 11:59:59;;;;;;;;;;;26.60;83.80;;;24.91;40.98;96050.78;10533487;28;2147;-85
2021/06/10 12:05:02;;;;;;;;;;;26.00;84.60;;;26.07;39.45;96032.28;10540930;28;2195;-81
2021/06/10 12:10:09;;;;;;;;;;;26.50;85.00;;;25.13;41.08;96036.38;10543293;28;2231;-83
2021/06/10 12:15:12;;;;;;;;;;;26.40;85.00;;;24.82;42.33;96031.75;10567724;28;2079;-82
2021/06/10 12:20:14;;;;;;;;;;;26.00;86.00;;;24.62;41.44;96027.34;10570421;28;2023;-81
2021/06/10 12:25:34;;;;;;;;;;;25.90;84.50;;;25.73;39.43;96019.50;10562553;28;2113;-81
2021/06/10 12:30:37;;;;;;;;;;;26.20;84.00;;;26.21;38.12;96012.47;10561646;28;2061;-82
2021/06/10 12:35:40;;;;;;;;;;;26.80;82.50;;;25.47;38.62;96009.94;10548643;28;2038;-82
2021/06/10 12:40:43;;;;;;;;;;;27.00;81.10;;;25.72;37.34;96013.16;10559311;28;2162;-82
2021/06/10 12:45:45;;;;;;;;;;;26.80;79.90;;;25.12;38.02;95993.50;10528193;28;2209;-84
2021/06/10 12:50:52;;;;;;;;;;;26.60;78.80;;;25.38;38.38;95994.81;10558531;28;2263;-86
2021/06/10 12:56:23;;;;;;;;;;;26.40;80.70;;;25.91;37.81;95986.78;10520022;28;2284;-82
2021/06/10 13:01:27;;;;;;;;;;;26.70;80.40;;;26.51;37.90;95976.72;10548652;28;2102;-82
2021/06/10 13:06:34;;;;;;;;;;;27.20;80.90;;;27.07;36.04;95980.69;10538750;28;2256;-85
2021/06/10 13:11:40;;;;;;;;;;;27.80;78.30;;;26.80;35.14;95966.91;10548376;28;2173;-85
2021/06/10 13:16:52;;;;;;;;;;;;;;;;;;;;;
2021/06/10 13:21:59;;;;;;;;;;;27.70;77.10;;;25.22;37.68;95964.63;10539571;28;2270;-84
2021/06/10 13:27:10;;;;;;;;;;;26.80;76.50;;;25.53;36.63;95953.44;10547074;28;2136;-85
2021/06/10 13:32:23;;;;;;;;;;;26.60;76.30;;;26.07;36.23;95948.84;10563518;28;2136;-84
2021/06/10 13:37:43;;;;;;;;;;;26.80;76.30;;;26.59;35.24;95945.38;10545225;28;2166;-84
2021/06/10 13:42:49;;;;;;;;;;;27.30;75.60;;;27.13;34.74;95946.06;10556097;28;2171;-84
2021/06/10 13:47:57;;;;;;;;;;;27.80;75.30;;;26.75;35.17;95936.91;10560002;28;2071;-83
2021/06/10 13:58:45;;;;;;;;;;;27.70;73.30;;;26.95;34.10;95921.78;10558359;28;2269;-84
2021/06/10 14:04:15;;;;;;;;;;;27.80;73.50;;;26.83;34.54;95927.53;10551428;28;2067;-82
2021/06/10 14:15:24;;;;;;;;;;;27.80;71.50;;;26.75;34.04;95920.34;10530364;28;2114;-84
2021/06/10 14:27:00;;;;;;;;;;;28.10;68.10;;;27.38;29.07;95902.97;10546214;28;2039;-84
2021/06/10 14:32:23;;;;;;;;;;;28.20;65.70;;;26.91;30.61;95918.19;10565582;27;2133;-83
2021/06/10 14:37:54;;;;;;;;;;;28.00;66.10;;;27.21;28.63;95920.13;10571863;28;2161;-84
2021/06/10 14:43:33;;;;;;;;;;;;;;;;;;;;;
2021/06/10 14:48:48;;;;;;;;;;;28.10;64.50;;;27.77;29.26;95897.03;10580422;28;2012;-84
2021/06/10 14:54:24;;;;;;;;;;;28.60;64.40;;;27.49;31.14;95903.09;10574260;27;2093;-87
2021/06/10 14:59:46;;;;;;;;;;;28.80;65.30;;;28.68;29.06;95888.97;10593207;27;1807;-83
2021/06/10 15:16:54;;;;;;;;;;;28.30;67.80;;;26.59;34.30;95905.94;10596540;27;1891;-85
2021/06/10 15:22:24;;;;;;;;;;;27.80;68.60;;;26.09;35.04;95906.03;10593103;27;1749;-85
2021/06/10 15:28:12;;;;;;;;;;;27.40;68.60;;;26.56;35.12;95906.72;10496447;28;2083;-86
2021/06/10 15:39:31;;;;;;;;;;;28.00;69.20;;;27.78;32.53;95895.88;10489016;28;2210;-84
2021/06/10 15:50:02;;;;;;;;;;;28.20;67.80;;;26.65;34.58;95901.69;10513205;28;2032;-82
2021/06/10 15:55:05;;;;;;;;;;;27.70;68.30;;;26.87;32.22;95892.53;10512182;28;1774;-86
2021/06/10 16:00:08;;;;;;;;;;;27.50;66.80;;;26.54;33.15;95892.50;10606777;27;1732;-83
2021/06/10 16:05:15;;;;;;;;;;;27.50;66.70;;;27.24;31.90;95879.97;10594012;28;1891;-83
2021/06/10 16:10:28;;;;;;;;;;;27.70;66.20;;;27.81;30.02;95869.47;10597505;28;1616;-86
2021/06/10 16:15:31;;;;;;;;;;;28.10;64.90;;;27.90;30.78;95870.72;10613159;28;1664;-85
2021/06/10 16:20:35;;;;;;;;;;;28.40;65.00;;;26.64;33.48;95865.06;10604603;27;1884;-85
2021/06/10 16:25:38;;;;;;;;;;;27.90;66.00;;;26.47;34.58;95862.09;10588785;28;2007;-85
2021/06/10 16:30:49;;;;;;;;;;;27.40;67.50;;;26.30;35.55;95861.44;10604600;28;2022;-86
2021/06/10 16:35:57;;;;;;;;;;;27.30;68.80;;;25.86;36.84;95866.69;10587705;28;1876;-84
2021/06/10 16:41:00;;;;;;;;;;;26.90;69.90;;;26.05;36.85;95872.09;10606372;28;1900;-85
2021/06/10 16:46:11;;;;;;;;;;;26.80;70.40;;;25.62;36.88;95873.38;10617400;28;1960;-85
2021/06/10 16:51:15;;;;;;;;;;;26.80;70.10;;;25.03;39.07;95880.16;10588989;28;1631;-82
2021/06/10 16:56:20;;;;;;;;;;;26.10;72.30;;;24.78;42.75;95876.91;10603029;28;1664;-85
2021/06/10 17:01:32;;;;;;;;;;;25.90;75.80;;;22.92;57.35;95907.34;10591263;27;1951;-84
2021/06/10 17:06:42;;;;;;;;;;;25.00;87.70;;;18.63;77.75;95925.63;10607934;27;1902;-85
2021/06/10 17:12:02;;;;;;;;;;;21.40;99.90;;;17.76;79.67;95947.28;10597778;27;1470;-83
2021/06/10 17:23:04;;;;;;;;;;;18.50;99.90;;;17.76;78.84;95946.50;10626677;27;2099;-84
2021/06/10 17:28:22;;;;;;;;;;;18.40;99.90;;;17.88;79.53;95943.16;10608546;27;1668;-84
2021/06/10 17:39:42;;;;;;;;;;;18.60;99.90;;;18.35;73.55;95966.78;10539194;22;2300;-84
2021/06/10 17:45:09;;;;;;;;;;;;;;;;;;;;;
2021/06/10 17:51:14;;;;;;;;;;;;;;;;;;;;;
2021/06/10 17:57:10;;;;;;;;;;;19.30;99.90;;;18.79;76.60;96002.25;10449630;28;2138;-83
2021/06/10 18:08:36;;;;;;;;;;;;;;;;;;;;;
2021/06/10 18:13:47;;;;;;;;;;;19.60;99.90;;;18.70;81.41;96002.22;10443790;28;2074;-83
2021/06/10 18:19:06;;;;;;;;;;;19.60;99.90;;;18.84;79.97;95997.44;10462654;28;2435;-83
2021/06/10 18:24:49;;;;;;;;;;;19.60;99.90;;;18.58;77.86;96010.22;10451832;28;2026;-82
2021/06/10 18:29:53;;;;;;;;;;;19.60;99.90;;;18.47;78.41;96003.47;10460238;28;2168;-80
2021/06/10 18:35:09;;;;;;;;;;;19.40;99.90;;;18.33;81.05;96015.28;10453086;28;2102;-84
2021/06/10 18:40:12;;;;;;;;;;;19.30;99.90;;;18.36;82.01;96014.66;10449291;28;2113;-80
2021/06/10 18:45:19;;;;;;;;;;;19.30;99.90;;;18.28;79.86;96028.25;10463831;28;1894;-82
2021/06/10 18:50:36;;;;;;;;;;;19.30;99.90;;;18.04;78.63;96024.00;10447979;28;2039;-83
2021/06/10 18:55:50;;;;;;;;;;;19.10;99.90;;;17.77;79.29;96038.63;10440682;28;1963;-81
2021/06/10 19:00:55;;;;;;;;;;;18.90;99.90;;;17.67;79.98;96047.00;10458459;28;2002;-84
2021/06/10 19:06:12;;;;;;;;;;;18.80;99.90;;;17.26;82.06;96042.63;10452455;28;1988;-83
2021/06/10 19:11:14;;;;;;;;;;;18.40;99.90;;;17.05;84.17;96056.97;10465855;28;1752;-82
2021/06/10 19:16:50;;;;;;;;;;;18.20;99.90;;;16.90;85.63;96066.28;10443468;28;2186;-80
2021/06/10 19:22:34;;;;;;;;;;;18.00;99.90;;;16.78;86.13;96060.59;10438013;28;2156;-82
2021/06/10 19:27:37;;;;;;;;;;;17.80;99.90;;;16.84;84.87;96062.88;10448323;28;2057;-82
2021/06/10 19:32:46;;;;;;;;;;;17.80;99.90;;;17.00;85.78;96064.16;10455904;28;2117;-81
2021/06/10 19:38:13;;;;;;;;;;;17.90;99.90;;;17.20;86.16;96062.06;10461075;28;1297;-82
2021/06/10 19:43:16;;;;;;;;;;;18.00;99.90;;;17.17;86.60;96073.53;10439765;28;1930;-80
2021/06/10 19:48:31;;;;;;;;;;;18.10;99.90;;;17.26;85.16;96058.91;10452551;28;2014;-82
2021/06/10 19:59:41;;;;;;;;;;;18.20;99.90;;;17.14;85.48;96061.38;10436639;28;2045;-80
2021/06/10 20:05:01;;;;;;;;;;;18.10;99.90;;;17.27;84.77;96060.53;10425765;28;2263;-81
2021/06/10 20:10:29;;;;;;;;;;;;;;;;;;;;;
2021/06/10 20:15:32;;;;;;;;;;;18.20;99.90;;;17.20;86.16;96057.44;10425268;28;2051;-82
2021/06/10 20:20:35;;;;;;;;;;;18.20;99.90;;;17.23;85.47;96054.09;10426667;28;1933;-82
2021/06/10 20:25:41;;;;;;;;;;;18.20;99.90;;;17.17;84.41;96055.31;10437314;28;2157;-81
2021/06/10 20:30:58;;;;;;;;;;;18.20;99.90;;;17.16;83.56;96059.16;10406693;28;2279;-80
2021/06/10 20:36:16;;;;;;;;;;;18.10;99.90;;;17.01;82.95;96054.09;10426858;28;2131;-81
2021/06/10 20:52:55;;;;;;;;;;;17.80;99.90;;;16.83;80.32;96053.13;10292775;28;2310;-81
2021/06/10 20:58:43;;;;;;;;;;;17.70;99.90;;;16.82;79.72;96053.44;10273481;28;2226;-81
2021/06/10 21:03:59;;;;;;;;;;;17.70;99.90;;;16.78;80.09;96063.31;10304468;28;2126;-84
2021/06/10 21:20:24;;;;;;;;;;;17.90;99.90;;;16.98;78.16;96050.06;10324597;28;1972;-78
2021/06/10 21:25:39;;;;;;;;;;;17.90;99.90;;;16.96;76.91;96049.56;10464103;28;1914;-79
2021/06/10 21:30:54;;;;;;;;;;;17.90;99.90;;;17.03;77.00;96049.94;10452376;28;2123;-82
2021/06/10 21:35:56;;;;;;;;;;;17.90;99.90;;;16.96;77.14;96048.78;10438841;28;2068;-82
2021/06/10 21:40:59;;;;;;;;;;;18.30;99.90;;;16.78;78.48;96045.09;10447673;28;2159;-81
2021/06/10 21:46:21;;;;;;;;;;;17.80;99.90;;;16.91;77.59;96038.81;10456707;28;2058;-81
2021/06/10 21:51:23;;;;;;;;;;;17.80;99.90;;;16.81;77.07;96035.56;10441134;28;1663;-81
2021/06/10 21:56:38;;;;;;;;;;;17.80;99.90;;;16.95;77.23;96041.75;10452491;28;1778;-81
2021/06/10 22:07:33;;;;;;;;;;;17.80;99.90;;;16.75;78.94;96024.81;10448759;28;2263;-84
2021/06/10 22:13:14;;;;;;;;;;;;;;;;;;;;;
2021/06/10 22:18:22;;;;;;;;;;;17.70;99.90;;;16.87;78.46;96009.91;10435872;28;2015;-81
2021/06/10 22:23:53;;;;;;;;;;;17.70;99.90;;;16.73;79.08;96008.03;10458564;28;1894;-83
2021/06/10 22:29:13;;;;;;;;;;;17.70;99.90;;;16.73;79.52;96007.22;10455921;28;1567;-83
2021/06/10 22:39:46;;;;;;;;;;;17.60;99.90;;;16.53;79.47;95997.59;10311420;28;2199;-83
2021/06/10 22:44:49;;;;;;;;;;;17.50;99.90;;;16.36;80.93;95995.53;10315532;28;2187;-82
2021/06/10 22:49:51;;;;;;;;;;;17.40;99.90;;;16.47;79.52;95999.63;10344551;28;2297;-84
2021/06/10 22:54:53;;;;;;;;;;;17.40;99.90;;;16.31;80.94;95995.66;10365350;28;2125;-79
2021/06/10 22:59:56;;;;;;;;;;;17.40;99.90;;;16.16;81.01;95996.78;10349069;28;1830;-81
2021/06/10 23:05:00;;;;;;;;;;;17.20;99.90;;;16.09;81.70;96003.69;10394806;23;2160;-82
2021/06/10 23:10:29;;;;;;;;;;;17.10;99.90;;;15.88;81.71;96003.31;10473539;28;2049;-81
2021/06/10 23:15:35;;;;;;;;;;;17.00;99.90;;;16.03;81.52;96000.31;10467853;28;2344;-82
2021/06/10 23:20:50;;;;;;;;;;;17.00;99.90;;;16.00;80.92;96005.53;10468369;28;2067;-82
2021/06/10 23:25:52;;;;;;;;;;;17.00;99.90;;;15.93;81.17;96001.31;10459951;28;2169;-82
2021/06/10 23:30:55;;;;;;;;;;;17.00;99.90;;;15.94;81.06;96000.19;10487028;28;2229;-82
2021/06/10 23:35:57;;;;;;;;;;;17.00;99.90;;;15.90;81.82;96009.22;10474305;28;2183;-82
2021/06/10 23:41:00;;;;;;;;;;;17.00;99.90;;;15.70;82.58;95994.19;10479140;28;2154;-82
2021/06/10 23:46:02;;;;;;;;;;;16.80;99.90;;;15.67;82.87;95998.31;10490766;28;2205;-81
2021/06/10 23:51:05;;;;;;;;;;;16.80;99.90;;;15.59;83.73;96001.69;10483949;28;2033;-81
2021/06/10 23:56:07;;;;;;;;;;;16.60;99.90;;;15.70;82.62;95993.38;10467463;28;2159;-79
